Time;durP1;ratioP1;P1;durP2;ratioP2;P2;SDS_P1;SDS_P2;PMS_P1;PMS_P2;Temp;Humidity;BMP_temperature;BMP_pressure;BME280_temperature;BME280_humidity;BME280_pressure;Samples;Min_cycle;Max_cycle;Signal;HPM_P1;HPM_P2
2022/06/27 00:02:09;;;;;;;9.55;3.22;;;;;;;20.25;72.71;100055.77;1769399;81;21202;-78
2022/06/27 00:05:13;;;;;;;7.33;3.20;;;;;;;20.24;72.68;100056.86;1769512;81;21190;-78
2022/06/27 00:08:20;;;;;;;5.10;3.20;;;;;;;20.24;72.66;100052.70;1769562;81;21233;-78
2022/06/27 00:11:28;;;;;;;5.95;2.85;;;;;;;20.22;72.72;100059.02;1769598;81;21197;-80
2022/06/27 00:14:37;;;;;;;2.90;2.55;;;;;;;20.20;72.84;100059.83;1769692;81;21796;-80
2022/06/27 00:17:43;;;;;;;7.58;2.72;;;;;;;20.17;73.09;100060.60;1769668;81;21186;-80
2022/06/27 00:20:49;;;;;;;10.20;3.15;;;;;;;20.15;73.40;100073.90;1771192;81;21182;-79
2022/06/27 00:23:56;;;;;;;5.58;3.27;;;;;;;20.12;73.58;100072.99;1769542;81;21231;-80
2022/06/27 00:27:02;;;;;;;7.92;3.22;;;;;;;20.11;73.83;100075.47;1771067;81;21183;-79
2022/06/27 00:30:10;;;;;;;4.85;3.27;;;;;;;20.06;74.18;100067.03;1768369;80;21265;-78
2022/06/27 00:33:15;;;;;;;5.28;3.08;;;;;;;20.03;74.57;100072.22;1770774;81;21186;-79
2022/06/27 00:36:21;;;;;;;5.55;3.12;;;;;;;19.98;74.89;100075.73;1771247;81;21182;-79
2022/06/27 00:39:27;;;;;;;6.85;2.90;;;;;;;19.96;75.27;100075.15;1770918;81;21748;-78
2022/06/27 00:42:33;;;;;;;5.50;2.80;;;;;;;19.95;75.52;100079.02;1771081;81;21190;-79
2022/06/27 00:45:38;;;;;;;7.78;3.25;;;;;;;19.94;75.76;100075.91;1771075;81;22602;-78
2022/06/27 00:48:44;;;;;;;8.60;3.05;;;;;;;19.91;75.98;100070.33;1769585;81;21764;-78
2022/06/27 00:51:50;;;;;;;12.43;4.00;;;;;;;19.89;76.28;100073.88;1771056;81;21725;-78
2022/06/27 00:54:57;;;;;;;7.95;3.22;;;;;;;19.87;76.60;100069.66;1769775;81;21254;-79
2022/06/27 00:58:03;;;;;;;5.60;2.98;;;;;;;19.88;76.80;100070.80;1770791;81;21226;-78
2022/06/27 01:01:09;;;;;;;4.85;2.67;;;;;;;19.90;76.90;100069.16;1770975;81;21472;-78
2022/06/27 01:04:14;;;;;;;7.80;2.83;;;;;;;19.94;77.07;100073.69;1770138;81;21257;-79
2022/06/27 01:07:20;;;;;;;7.83;3.10;;;;;;;19.97;77.22;100075.98;1771011;81;21237;-78
2022/06/27 01:10:26;;;;;;;4.70;3.08;;;;;;;20.01;77.28;100077.19;1770755;81;21266;-78
2022/06/27 01:13:32;;;;;;;4.35;2.45;;;;;;;20.07;77.21;100075.66;1771230;81;21214;-78
2022/06/27 01:16:37;;;;;;;4.62;2.80;;;;;;;20.13;77.10;100073.28;1769546;81;21190;-78
2022/06/27 01:19:44;;;;;;;5.17;2.52;;;;;;;20.18;76.79;100076.71;1771213;81;21182;-78
2022/06/27 01:22:50;;;;;;;5.45;2.92;;;;;;;20.25;76.75;100073.81;1771083;81;21182;-79
2022/06/27 01:25:56;;;;;;;4.40;2.80;;;;;;;20.30;76.52;100078.93;1770497;81;21214;-79
2022/06/27 01:29:03;;;;;;;7.78;3.22;;;;;;;20.35;76.37;100076.25;1769990;81;21187;-78
2022/06/27 01:32:10;;;;;;;6.37;2.62;;;;;;;20.40;76.24;100079.13;1771041;81;21183;-76
2022/06/27 01:35:18;;;;;;;6.67;3.12;;;;;;;20.42;76.23;100077.52;1769779;81;21800;-78
2022/06/27 01:38:25;;;;;;;5.67;3.00;;;;;;;20.46;76.28;100079.23;1771121;81;21183;-79
2022/06/27 01:41:34;;;;;;;8.68;3.15;;;;;;;20.48;76.33;100074.33;1770239;81;21234;-79
2022/06/27 01:44:34;;;;;;;11.83;3.08;;;;;;;20.49;76.23;100071.29;1753952;81;21230;-78
2022/06/27 01:47:29;;;;;;;5.72;2.87;;;;;;;20.53;76.16;100072.48;1771208;81;21230;-79
2022/06/27 01:50:35;;;;;;;9.80;2.70;;;;;;;20.56;76.22;100072.00;1771091;81;21162;-78
2022/06/27 01:53:41;;;;;;;7.05;3.00;;;;;;;20.58;76.15;100073.97;1771026;81;21226;-78
2022/06/27 01:56:53;;;;;;;5.40;2.98;;;;;;;20.61;76.11;100066.55;1770274;81;21226;-78
2022/06/27 01:59:58;;;;;;;11.00;3.30;;;;;;;20.68;75.87;100076.95;1769479;81;21190;-78
2022/06/27 02:03:05;;;;;;;5.97;3.10;;;;;;;20.81;75.57;100074.97;1763639;81;21245;-79
2022/06/27 02:06:13;;;;;;;3.98;2.83;;;;;;;20.98;75.03;100073.05;1769717;81;21636;-79
2022/06/27 02:09:21;;;;;;;6.80;2.77;;;;;;;21.21;74.25;100075.39;1771474;81;21190;-79
2022/06/27 02:12:28;;;;;;;6.97;3.05;;;;;;;21.42;73.19;100074.13;1769857;81;21820;-79
2022/06/27 02:15:37;;;;;;;7.80;2.85;;;;;;;21.61;72.35;100071.09;1770158;81;21186;-78
2022/06/27 02:18:43;;;;;;;4.92;2.60;;;;;;;21.74;71.47;100076.83;1769544;81;21241;-78
2022/06/27 02:21:49;;;;;;;8.50;2.87;;;;;;;21.82;71.10;100075.01;1771126;81;21159;-78
2022/06/27 02:24:55;;;;;;;5.30;3.05;;;;;;;21.89;70.86;100078.47;1770509;81;21218;-78
2022/06/27 02:28:01;;;;;;;4.33;3.10;;;;;;;21.99;70.33;100077.21;1769628;81;21824;-78
2022/06/27 02:31:06;;;;;;;10.03;3.47;;;;;;;22.07;70.03;100079.56;1772929;80;21266;-78
2022/06/27 02:34:12;;;;;;;11.93;2.60;;;;;;;22.16;69.69;100073.88;1754803;80;21166;-78
2022/06/27 02:37:20;;;;;;;8.45;2.77;;;;;;;22.12;69.19;100079.66;1777816;80;21233;-78
2022/06/27 02:40:26;;;;;;;4.62;3.00;;;;;;;21.95;69.78;100076.88;1777732;80;21189;-79
2022/06/27 02:43:33;;;;;;;7.85;2.77;;;;;;;21.80;70.31;100074.44;1755838;80;21186;-78
2022/06/27 02:46:39;;;;;;;8.28;3.02;;;;;;;21.66;71.08;100083.13;1779419;80;22377;-78
2022/06/27 02:49:49;;;;;;;4.97;3.22;;;;;;;21.52;71.66;100084.58;1779280;80;21717;-78
2022/06/27 02:52:57;;;;;;;6.50;3.10;;;;;;;21.44;72.22;100086.39;1779047;80;21183;-79
2022/06/27 02:56:06;;;;;;;8.78;3.40;;;;;;;21.40;72.57;100084.66;1778220;80;21198;-78
2022/06/27 02:59:18;;;;;;;10.08;3.40;;;;;;;21.36;72.90;100082.62;1777963;80;21229;-78
2022/06/27 03:02:25;;;;;;;12.23;3.90;;;;;;;21.34;73.09;100072.31;1779365;80;21817;-78
2022/06/27 03:06:11;;;;;;;10.30;3.70;;;;;;;21.44;72.95;100072.47;1714882;83;21256;-78
2022/06/27 03:09:18;;;;;;;9.53;3.50;;;;;;;21.69;72.10;100073.45;1779272;80;21190;-79
2022/06/27 03:12:24;;;;;;;7.97;3.42;;;;;;;22.09;70.36;100077.34;1778688;80;21213;-78
2022/06/27 03:15:31;;;;;;;6.37;3.65;;;;;;;22.45;68.91;100069.49;1777522;80;21201;-79
2022/06/27 03:18:37;;;;;;;8.68;3.65;;;;;;;22.77;67.43;100081.25;1779170;80;21293;-79
2022/06/27 03:22:01;;;;;;;11.45;3.83;;;;;;;23.04;65.89;100079.34;1779255;80;21174;-78
2022/06/27 03:25:06;;;;;;;5.90;3.42;;;;;;;23.27;64.83;100081.52;1779783;80;21229;-78
2022/06/27 03:28:14;;;;;;;11.15;4.12;;;;;;;23.45;63.28;100083.91;1778404;80;21213;-78
2022/06/27 03:31:20;;;;;;;9.93;3.33;;;;;;;23.52;62.73;100084.50;1777389;80;21288;-79
2022/06/27 03:34:27;;;;;;;5.62;3.40;;;;;;;23.68;62.36;100079.37;1779171;80;21183;-79
2022/06/27 03:37:35;;;;;;;4.62;3.20;;;;;;;23.73;61.38;100077.73;1779165;80;21182;-79
2022/06/27 03:40:42;;;;;;;11.65;3.85;;;;;;;23.74;60.97;100083.03;1779109;80;21186;-79
2022/06/27 03:43:48;;;;;;;11.10;3.60;;;;;;;23.80;60.63;100086.13;1778010;80;21226;-79
2022/06/27 03:46:56;;;;;;;6.97;3.72;;;;;;;23.87;60.21;100085.92;1747951;80;21236;-79
2022/06/27 03:50:06;;;;;;;13.18;3.62;;;;;;;23.85;60.16;100082.53;1776226;80;21793;-78
2022/06/27 03:53:15;;;;;;;6.25;3.50;;;;;;;23.80;60.36;100086.13;1804913;79;22548;-78
2022/06/27 03:56:21;;;;;;;7.78;3.08;;;;;;;23.74;60.45;100077.45;1806322;79;21184;-79
2022/06/27 03:59:27;;;;;;;6.72;3.47;;;;;;;23.71;60.22;100078.84;1805705;79;21208;-78
2022/06/27 04:02:33;;;;;;;4.85;3.30;;;;;;;23.73;60.28;100079.96;1807073;79;21224;-78
2022/06/27 04:05:57;;;;;;;3.85;3.22;;;;;;;23.73;60.40;100079.96;1806418;79;21208;-78
2022/06/27 04:09:04;;;;;;;6.83;3.52;;;;;;;23.70;60.31;100081.33;1806860;79;21177;-78
2022/06/27 04:12:11;;;;;;;6.03;4.03;;;;;;;23.57;60.83;100070.61;1806808;79;21177;-78
2022/06/27 04:15:34;;;;;;;7.92;3.42;;;;;;;23.51;60.97;100070.83;1806908;79;21181;-78
2022/06/27 04:18:57;;;;;;;9.48;3.58;;;;;;;23.40;60.94;100073.54;1804928;79;21208;-78
2022/06/27 04:22:21;;;;;;;7.85;3.33;;;;;;;23.36;61.20;100072.94;1805727;79;21189;-78
2022/06/27 04:25:29;;;;;;;7.10;3.58;;;;;;;23.34;61.56;100077.41;1781596;79;21528;-78
2022/06/27 04:28:37;;;;;;;10.10;4.10;;;;;;;23.35;61.29;100073.50;1814884;79;21654;-77
2022/06/27 04:31:42;;;;;;;10.03;3.90;;;;;;;23.33;60.53;100088.25;1790392;79;21475;-78
2022/06/27 04:34:49;;;;;;;9.43;3.22;;;;;;;23.30;61.02;100080.99;1806502;77;21177;-78
2022/06/27 04:37:56;;;;;;;8.65;3.87;;;;;;;23.29;61.05;100083.47;1793481;79;21728;-78
2022/06/27 04:41:07;;;;;;;7.33;3.98;;;;;;;23.30;60.72;100083.78;1755380;79;21207;-78
2022/06/27 04:44:13;;;;;;;9.88;3.75;;;;;;;23.30;61.00;100089.36;1790833;78;22340;-78
2022/06/27 04:47:20;;;;;;;8.40;3.37;;;;;;;23.38;61.36;100091.12;1773679;79;21271;-79
2022/06/27 04:50:28;;;;;;;5.92;3.70;;;;;;;23.50;60.17;100086.73;1774898;81;21743;-78
2022/06/27 04:53:35;;;;;;;12.93;3.52;;;;;;;23.61;59.88;100084.85;1777794;80;21279;-78
2022/06/27 04:56:42;;;;;;;7.17;3.62;;;;;;;23.82;59.78;100083.09;1746644;80;21173;-78
2022/06/27 04:59:49;;;;;;;9.68;3.75;;;;;;;24.09;59.14;100087.14;1778513;80;21208;-78
2022/06/27 05:02:57;;;;;;;6.37;3.60;;;;;;;24.34;57.15;100085.89;1786111;79;21787;-78
2022/06/27 05:06:05;;;;;;;6.47;3.33;;;;;;;24.58;56.43;100090.49;1810699;79;21153;-78
2022/06/27 05:09:12;;;;;;;10.10;3.80;;;;;;;24.86;54.61;100088.34;1809644;79;21157;-78
2022/06/27 05:12:18;;;;;;;6.25;3.37;;;;;;;24.97;53.37;100092.27;1809539;79;21165;-78
2022/06/27 05:15:24;;;;;;;6.08;3.42;;;;;;;24.77;53.67;100089.99;1810667;79;21176;-78
2022/06/27 05:18:32;;;;;;;10.05;3.52;;;;;;;24.56;54.33;100088.54;1779643;80;21247;-79
2022/06/27 05:21:39;;;;;;;7.22;3.30;;;;;;;24.50;54.65;100081.23;1780018;80;21228;-79
2022/06/27 05:24:51;;;;;;;7.20;3.35;;;;;;;24.62;55.09;100080.45;1781226;80;21743;-79
2022/06/27 05:27:58;;;;;;;11.70;3.70;;;;;;;24.74;55.28;100097.80;1803800;79;21236;-79
2022/06/27 05:30:58;;;;;;;6.20;3.40;;;;;;;24.87;54.33;100088.61;1794695;79;21196;-79
2022/06/27 05:34:03;;;;;;;9.30;3.70;;;;;;;24.99;54.20;100096.20;1780802;80;21185;-79
2022/06/27 05:37:09;;;;;;;8.95;3.80;;;;;;;25.10;53.85;100102.13;1778881;79;21803;-79
2022/06/27 05:40:17;;;;;;;10.90;4.17;;;;;;;25.19;53.47;100103.82;1758421;81;21312;-79
2022/06/27 05:43:24;;;;;;;5.75;3.30;;;;;;;25.27;52.56;100113.64;1758890;81;21185;-79
2022/06/27 05:46:30;;;;;;;11.12;4.00;;;;;;;25.29;53.32;100111.38;1759026;81;21184;-79
2022/06/27 05:49:34;;;;;;;5.85;3.40;;;;;;;25.36;52.96;100103.53;1764846;80;21181;-79
2022/06/27 05:52:41;;;;;;;7.08;3.20;;;;;;;25.43;52.22;100110.55;1733013;82;21371;-79
2022/06/27 05:55:47;;;;;;;4.05;3.27;;;;;;;25.51;52.83;100107.77;1730999;81;21855;-78
2022/06/27 05:58:55;;;;;;;5.70;3.17;;;;;;;25.61;52.00;100104.95;1748087;82;21240;-78
2022/06/27 06:02:02;;;;;;;6.40;3.17;;;;;;;25.77;51.38;100107.77;1743653;82;21314;-79
2022/06/27 06:05:12;;;;;;;5.33;2.90;;;;;;;25.83;49.29;100106.09;1715145;83;21205;-78
2022/06/27 06:08:18;;;;;;;12.55;2.92;;;;;;;25.83;49.07;100126.23;1715177;82;21221;-79
2022/06/27 06:11:25;;;;;;;5.87;3.10;;;;;;;25.90;49.52;100110.00;1743428;81;21831;-79
2022/06/27 06:14:31;;;;;;;8.35;3.58;;;;;;;26.06;48.35;100110.80;1755148;81;21201;-79
2022/06/27 06:17:37;;;;;;;7.28;2.83;;;;;;;26.16;48.38;100108.83;1731194;82;21277;-78
2022/06/27 06:20:42;;;;;;;7.47;2.92;;;;;;;26.33;49.12;100106.24;1744362;81;21193;-79
2022/06/27 06:23:51;;;;;;;7.03;3.27;;;;;;;26.56;46.29;100106.19;1761011;81;21236;-78
2022/06/27 06:27:00;;;;;;;6.40;3.08;;;;;;;26.82;44.91;100108.28;1753972;80;21199;-78
2022/06/27 06:30:07;;;;;;;4.80;2.83;;;;;;;26.97;45.07;100104.02;1752838;81;21470;-78
2022/06/27 06:33:13;;;;;;;8.58;3.02;;;;;;;27.06;44.85;100114.91;1736574;82;21203;-78
2022/06/27 06:36:21;;;;;;;9.18;3.00;;;;;;;27.10;43.73;100103.41;1743444;81;21224;-78
2022/06/27 06:39:26;;;;;;;9.33;2.62;;;;;;;27.12;44.92;100104.50;1720011;82;21263;-78
2022/06/27 06:42:32;;;;;;;7.80;2.75;;;;;;;27.14;44.16;100100.83;1729714;81;21230;-78
2022/06/27 06:45:45;;;;;;;6.00;2.60;;;;;;;27.23;45.06;100106.10;1696400;80;21742;-78
2022/06/27 06:48:40;;;;;;;5.12;2.80;;;;;;;27.31;45.21;100101.84;1739922;81;21264;-79
2022/06/27 06:51:47;;;;;;;8.70;3.27;;;;;;;27.39;44.80;100106.84;1749224;80;21177;-79
2022/06/27 06:54:53;;;;;;;4.37;2.87;;;;;;;27.44;44.27;100119.44;1763270;80;21256;-79
2022/06/27 06:58:00;;;;;;;6.80;2.77;;;;;;;27.42;44.27;100114.09;1784298;80;21229;-79
2022/06/27 07:01:06;;;;;;;11.25;3.47;;;;;;;27.50;44.50;100114.05;1773020;80;21254;-79
2022/06/27 07:04:14;;;;;;;6.78;2.45;;;;;;;27.66;44.10;100128.78;1779958;80;21186;-78
2022/06/27 07:07:15;;;;;;;5.60;2.25;;;;;;;27.75;42.03;100123.67;1790072;78;21177;-79
2022/06/27 07:10:23;;;;;;;3.67;1.90;;;;;;;27.83;40.57;100121.38;1798952;78;21184;-79
2022/06/27 07:13:28;;;;;;;4.37;2.30;;;;;;;27.91;41.14;100124.39;1804972;78;21310;-79
2022/06/27 07:16:35;;;;;;;7.17;2.27;;;;;;;28.01;41.14;100124.85;1785755;78;21209;-79
2022/06/27 07:19:43;;;;;;;6.90;2.37;;;;;;;28.04;40.20;100148.13;1792877;79;21173;-78
2022/06/27 07:22:50;;;;;;;4.58;2.20;;;;;;;28.00;40.42;100116.16;1759202;81;22039;-79
2022/06/27 07:25:56;;;;;;;6.25;2.50;;;;;;;27.93;40.58;100124.08;1797822;79;21819;-79
2022/06/27 07:29:03;;;;;;;7.30;2.15;;;;;;;27.93;40.58;100124.08;1802915;79;21819;-79
2022/06/27 07:32:10;;;;;;;8.10;2.35;;;;;;;28.08;39.80;100121.11;1803299;79;21181;-79
2022/06/27 07:35:17;;;;;;;4.70;2.40;;;;;;;28.08;39.80;100121.11;1803450;79;21248;-79
2022/06/27 07:38:24;;;;;;;3.05;1.75;;;;;;;28.13;40.69;100132.87;1790269;78;21153;-79
2022/06/27 07:41:32;;;;;;;10.48;2.15;;;;;;;28.26;40.85;100114.73;1778970;79;22551;-79
2022/06/27 07:44:38;;;;;;;10.60;2.12;;;;;;;28.45;40.30;100124.66;1796862;79;21756;-79
2022/06/27 07:47:46;;;;;;;5.67;1.80;;;;;;;28.61;39.09;100114.65;1797916;78;21220;-79
2022/06/27 07:50:51;;;;;;;5.17;1.80;;;;;;;28.61;39.09;100114.65;1787000;79;21156;-79
2022/06/27 07:53:56;;;;;;;4.45;1.80;;;;;;;28.73;39.69;100110.81;1789862;78;21827;-79
2022/06/27 07:57:05;;;;;;;3.70;1.60;;;;;;;28.90;38.73;100124.39;1790166;78;21196;-79
2022/06/27 08:00:14;;;;;;;13.50;2.20;;;;;;;28.98;38.35;100118.95;1775060;80;21189;-79
2022/06/27 08:06:46;;;;;;;8.48;2.08;;;;;;;29.07;37.63;100126.13;1753514;81;21217;-79
2022/06/27 08:09:52;;;;;;;3.22;1.35;;;;;;;29.05;36.20;100110.69;1715652;81;21276;-79
2022/06/27 08:12:59;;;;;;;5.15;1.82;;;;;;;29.05;36.20;100110.69;1736197;82;21193;-79
2022/06/27 08:16:06;;;;;;;2.10;1.47;;;;;;;28.84;36.98;100118.54;1736824;81;21412;-79
2022/06/27 08:19:07;;;;;;;3.35;1.42;;;;;;;28.84;36.98;100118.54;1701110;84;21213;-78
2022/06/27 08:22:06;;;;;;;2.80;1.47;;;;;;;28.68;36.24;100122.97;1729846;82;21186;-79
2022/06/27 08:25:12;;;;;;;2.83;1.92;;;;;;;28.52;36.84;100148.23;1719132;83;21888;-79
2022/06/27 08:28:20;;;;;;;3.37;1.60;;;;;;;28.42;37.43;100130.91;1705910;84;21205;-79
2022/06/27 08:31:26;;;;;;;4.35;1.70;;;;;;;28.45;37.49;100135.08;1705719;84;21720;-79
2022/06/27 08:34:35;;;;;;;5.47;1.98;;;;;;;28.77;36.55;100133.83;1736623;82;21257;-79
2022/06/27 08:37:41;;;;;;;6.03;1.47;;;;;;;28.77;36.55;100133.83;1721126;81;21226;-79
2022/06/27 08:40:48;;;;;;;3.62;1.90;;;;;;;29.19;36.52;100142.01;1720827;82;21221;-79
2022/06/27 08:43:53;;;;;;;7.05;1.75;;;;;;;29.19;36.52;100142.01;1730837;82;21561;-79
2022/06/27 08:46:59;;;;;;;5.62;1.92;;;;;;;29.42;35.90;100121.10;1731111;81;21157;-79
2022/06/27 08:50:07;;;;;;;3.52;1.77;;;;;;;29.61;35.05;100137.44;1718542;82;21240;-79
2022/06/27 08:53:13;;;;;;;4.80;1.60;;;;;;;29.69;35.04;100124.61;1725089;81;21201;-78
2022/06/27 08:56:20;;;;;;;4.10;1.87;;;;;;;29.72;34.10;100136.69;1709685;81;21253;-79
2022/06/27 08:59:28;;;;;;;4.47;2.10;;;;;;;29.70;34.72;100124.32;1753724;81;21225;-79
2022/06/27 09:02:36;;;;;;;5.30;2.00;;;;;;;29.73;34.59;100125.09;1752167;81;21214;-79
2022/06/27 09:05:44;;;;;;;6.40;1.80;;;;;;;29.74;34.13;100131.59;1746413;80;21446;-79
2022/06/27 09:09:11;;;;;;;2.23;1.43;;;;;;;29.79;33.78;100129.52;1735325;82;21784;-79
2022/06/27 09:12:27;;;;;;;4.95;1.60;;;;;;;29.86;33.03;100126.86;1752122;80;21846;-79
2022/06/27 09:15:52;;;;;;;3.45;1.85;;;;;;;29.82;33.58;100133.69;1753253;81;21250;-79
2022/06/27 09:18:58;;;;;;;4.25;1.70;;;;;;;29.81;33.08;100125.55;1757003;80;21212;-79
2022/06/27 09:22:19;;;;;;;4.72;1.60;;;;;;;29.81;33.43;100123.56;1703117;82;21835;-79
2022/06/27 09:25:23;;;;;;;11.30;1.87;;;;;;;29.82;33.40;100149.77;1749867;80;21209;-79
2022/06/27 09:28:29;;;;;;;5.25;1.82;;;;;;;29.80;33.83;100137.40;1770041;80;21189;-79
2022/06/27 09:31:42;;;;;;;2.58;1.75;;;;;;;29.70;34.03;100137.00;1753151;80;21213;-79
2022/06/27 09:34:48;;;;;;;8.03;1.70;;;;;;;29.60;33.68;100124.50;1711839;83;21212;-79
2022/06/27 09:38:04;;;;;;;3.50;1.72;;;;;;;29.46;34.00;100122.17;1751765;80;21543;-79
2022/06/27 09:41:02;;;;;;;8.45;1.70;;;;;;;29.42;34.32;100121.10;1750789;81;21201;-79
2022/06/27 09:43:56;;;;;;;7.65;1.70;;;;;;;29.52;33.98;100116.70;1735891;82;21237;-80
2022/06/27 09:46:46;;;;;;;2.98;1.60;;;;;;;29.59;33.45;100114.92;1710548;82;21177;-79
2022/06/27 09:49:43;;;;;;;6.22;1.90;;;;;;;29.62;34.22;100123.61;1737168;82;21344;-79
2022/06/27 09:52:29;;;;;;;5.45;1.75;;;;;;;29.74;34.56;100098.61;1750989;80;21192;-80
2022/06/27 09:55:36;;;;;;;5.42;1.85;;;;;;;29.90;33.60;100109.59;1749898;81;21217;-79
2022/06/27 09:58:41;;;;;;;5.65;1.80;;;;;;;30.01;33.10;100119.53;1764368;80;21240;-79
2022/06/27 10:01:49;;;;;;;10.32;1.72;;;;;;;30.03;32.92;100097.52;1777565;80;21193;-78
2022/06/27 10:04:56;;;;;;;2.20;1.22;;;;;;;30.07;32.95;100101.39;1794844;79;21196;-79
2022/06/27 10:08:09;;;;;;;7.70;1.80;;;;;;;30.12;32.71;100101.29;1792233;79;21236;-79
2022/06/27 10:11:16;;;;;;;7.95;1.60;;;;;;;30.18;32.33;100110.52;1775263;79;21763;-79
2022/06/27 10:14:32;;;;;;;4.60;1.80;;;;;;;30.20;32.38;100106.79;1735500;82;21268;-80
2022/06/27 10:17:37;;;;;;;7.65;1.55;;;;;;;30.08;32.10;100090.36;1752467;81;21189;-79
2022/06/27 10:20:48;;;;;;;10.18;1.67;;;;;;;30.03;33.12;100101.17;1773212;81;21285;-79
2022/06/27 10:23:53;;;;;;;5.10;1.60;;;;;;;30.00;33.10;100100.95;1735960;82;21205;-79
2022/06/27 10:27:02;;;;;;;9.35;1.85;;;;;;;29.96;33.36;100105.53;1760614;80;21303;-79
2022/06/27 10:30:08;;;;;;;2.22;1.65;;;;;;;29.97;33.76;100100.14;1751088;81;21175;-79
2022/06/27 10:33:28;;;;;;;4.42;1.45;;;;;;;30.00;33.59;100100.37;1719160;80;21229;-79
2022/06/27 10:36:35;;;;;;;3.37;1.50;;;;;;;30.04;33.11;100098.60;1753158;80;21190;-80
2022/06/27 10:39:34;;;;;;;6.70;1.87;;;;;;;30.08;33.34;100103.62;1761722;81;21189;-78
2022/06/27 10:43:01;;;;;;;4.72;1.80;;;;;;;30.20;32.91;100091.28;1756261;80;21276;-80
2022/06/27 10:46:06;;;;;;;5.58;1.87;;;;;;;30.34;32.72;100123.73;1790027;79;21184;-79
2022/06/27 10:49:16;;;;;;;5.45;1.70;;;;;;;30.30;32.54;100100.94;1789253;79;22142;-80
2022/06/27 10:52:31;;;;;;;8.13;1.82;;;;;;;30.24;32.88;100095.98;1799113;79;21209;-79
2022/06/27 10:55:37;;;;;;;3.37;1.80;;;;;;;30.31;32.59;100111.68;1797113;79;21186;-80
2022/06/27 10:58:47;;;;;;;4.17;1.70;;;;;;;30.35;32.18;100101.41;1804769;79;21192;-80
2022/06/27 11:02:00;;;;;;;2.98;1.50;;;;;;;30.26;32.22;100096.52;1768607;80;21164;-80
2022/06/27 11:05:06;;;;;;;8.48;1.75;;;;;;;30.17;32.68;100096.16;1767110;80;21173;-80
2022/06/27 11:08:12;;;;;;;5.87;1.90;;;;;;;30.14;32.59;100103.23;1782824;78;21209;-80
2022/06/27 11:11:31;;;;;;;5.25;1.90;;;;;;;30.12;32.03;100098.47;1772594;80;21188;-80
2022/06/27 11:14:37;;;;;;;3.85;2.30;;;;;;;30.11;32.41;100100.17;1783289;78;21251;-80
2022/06/27 11:17:50;;;;;;;4.85;2.47;;;;;;;29.95;32.61;100097.65;1797629;78;21190;-80
2022/06/27 11:20:55;;;;;;;5.47;2.35;;;;;;;29.91;32.95;100095.18;1792550;80;21835;-80
2022/06/27 11:24:15;;;;;;;12.80;2.75;;;;;;;30.01;33.21;100082.88;1786441;80;21244;-80
2022/06/27 11:27:22;;;;;;;5.28;2.10;;;;;;;30.18;32.40;100084.55;1772229;80;21877;-79
2022/06/27 11:34:08;;;;;;;7.33;2.22;;;;;;;30.29;31.72;100082.35;1764335;81;21799;-79
2022/06/27 11:37:21;;;;;;;4.65;2.37;;;;;;;30.31;31.84;100070.78;1763325;80;21170;-79
2022/06/27 11:40:38;;;;;;;15.63;2.72;;;;;;;30.43;31.21;100071.06;1786345;80;21208;-80
2022/06/27 11:44:12;;;;;;;9.40;2.08;;;;;;;30.58;31.68;100074.96;1752713;80;21394;-81
2022/06/27 11:47:18;;;;;;;4.28;2.10;;;;;;;30.72;31.48;100071.58;1779270;80;21327;-81
2022/06/27 11:50:26;;;;;;;6.83;2.40;;;;;;;30.77;31.36;100077.14;1775411;80;21157;-81
2022/06/27 11:53:32;;;;;;;17.87;2.52;;;;;;;30.82;31.61;100102.14;1782133;80;21816;-81
2022/06/27 11:56:39;;;;;;;4.62;2.33;;;;;;;30.75;31.21;100086.48;1771285;80;21231;-81
2022/06/27 11:59:46;;;;;;;7.53;2.45;;;;;;;30.64;31.55;100079.95;1727363;80;21243;-80
2022/06/27 12:03:08;;;;;;;8.33;2.10;;;;;;;30.59;32.02;100072.42;1770410;79;21692;-80
2022/06/27 12:06:23;;;;;;;3.55;2.10;;;;;;;30.55;32.46;100077.03;1794048;79;21141;-80
2022/06/27 12:10:01;;;;;;;9.65;2.20;;;;;;;30.56;31.94;100082.92;1805344;79;21534;-80
2022/06/27 12:13:18;;;;;;;6.67;2.30;;;;;;;30.62;31.28;100084.47;1796118;79;21216;-81
2022/06/27 12:16:25;;;;;;;8.43;2.10;;;;;;;30.72;30.76;100080.05;1763804;81;21209;-81
2022/06/27 12:19:51;;;;;;;7.47;2.20;;;;;;;30.77;30.20;100089.84;1800827;79;21759;-81
2022/06/27 12:23:04;;;;;;;7.67;2.50;;;;;;;30.76;31.15;100072.62;1773216;81;21188;-80
2022/06/27 12:26:13;;;;;;;7.72;2.50;;;;;;;30.73;31.37;100084.56;1789079;79;21177;-80
2022/06/27 12:29:19;;;;;;;5.47;2.20;;;;;;;30.64;31.77;100088.41;1793223;79;21229;-80
2022/06/27 12:32:24;;;;;;;12.00;2.58;;;;;;;30.62;31.75;100087.30;1761988;81;21228;-80
2022/06/27 12:35:31;;;;;;;11.75;2.83;;;;;;;30.66;30.76;100086.93;1804780;79;21853;-80
2022/06/27 12:38:36;;;;;;;4.35;2.40;;;;;;;30.66;30.37;100096.81;1802372;79;21188;-80
2022/06/27 12:41:43;;;;;;;5.22;2.15;;;;;;;30.64;30.68;100077.95;1801255;79;21189;-80
2022/06/27 12:44:48;;;;;;;4.47;2.40;;;;;;;30.67;31.02;100084.36;1798635;79;21268;-80
2022/06/27 12:47:56;;;;;;;4.35;1.90;;;;;;;30.78;31.06;100080.80;1793213;79;21722;-79
2022/06/27 12:51:01;;;;;;;10.93;2.85;;;;;;;30.87;30.81;100097.83;1802239;79;21739;-80
2022/06/27 12:54:09;;;;;;;5.92;2.75;;;;;;;30.84;30.50;100080.09;1797796;79;21423;-80
2022/06/27 12:57:15;;;;;;;4.20;2.60;;;;;;;30.74;30.63;100085.39;1787921;79;21757;-80
2022/06/27 13:00:22;;;;;;;5.47;2.70;;;;;;;30.65;30.66;100083.02;1790891;79;21216;-80
2022/06/27 13:03:28;;;;;;;5.90;2.58;;;;;;;30.62;30.86;100069.53;1782191;79;21208;-80
2022/06/27 13:06:36;;;;;;;10.48;2.50;;;;;;;30.70;30.79;100068.80;1800202;79;21190;-80
2022/06/27 13:09:40;;;;;;;5.30;2.52;;;;;;;30.84;30.48;100068.80;1805025;79;21176;-80
2022/06/27 13:12:47;;;;;;;4.17;1.90;;;;;;;30.97;30.33;100063.12;1801204;79;21181;-80
2022/06/27 13:15:54;;;;;;;7.12;2.37;;;;;;;31.03;29.46;100068.89;1791802;78;21209;-80
2022/06/27 13:19:00;;;;;;;13.55;2.67;;;;;;;30.91;30.16;100072.01;1780575;80;22575;-80
2022/06/27 13:22:07;;;;;;;6.37;2.60;;;;;;;30.65;30.63;100061.27;1793022;77;21168;-80
2022/06/27 13:25:13;;;;;;;6.03;2.95;;;;;;;30.45;30.90;100065.96;1797780;79;21193;-80
2022/06/27 13:28:25;;;;;;;17.67;3.05;;;;;;;30.27;31.31;100062.92;1782746;79;22059;-79
2022/06/27 13:31:46;;;;;;;7.97;2.85;;;;;;;30.14;31.73;100053.89;1797243;79;21328;-79
2022/06/27 13:34:53;;;;;;;14.45;2.70;;;;;;;30.19;31.56;100036.86;1795180;79;21162;-80
2022/06/27 13:38:03;;;;;;;5.15;2.90;;;;;;;30.35;31.60;100037.94;1804775;79;21793;-80
2022/06/27 13:41:09;;;;;;;15.45;3.95;;;;;;;30.52;30.99;100046.02;1791276;79;21201;-80
2022/06/27 13:44:16;;;;;;;18.52;4.37;;;;;;;30.67;30.79;100044.84;1812535;78;21205;-80
2022/06/27 13:47:25;;;;;;;18.98;5.65;;;;;;;30.79;30.88;100045.17;1762882;80;21837;-79
2022/06/27 13:50:34;;;;;;;13.75;5.08;;;;;;;30.89;29.36;100054.56;1767581;80;21178;-79
2022/06/27 13:53:41;;;;;;;13.45;6.22;;;;;;;30.84;30.17;100034.92;1806455;79;21205;-79
2022/06/27 13:56:47;;;;;;;20.25;7.10;;;;;;;30.79;30.60;100046.59;1791985;79;21185;-79
2022/06/27 13:59:53;;;;;;;15.65;6.85;;;;;;;30.83;30.12;100049.62;1801435;78;21173;-80
2022/06/27 14:02:58;;;;;;;22.32;7.37;;;;;;;30.84;30.04;100044.80;1794834;78;21224;-80
2022/06/27 14:09:28;;;;;;;25.82;7.28;;;;;;;30.80;30.39;100031.89;1783626;80;21221;-79
2022/06/27 14:12:34;;;;;;;20.43;6.80;;;;;;;30.78;30.48;100033.63;1775301;78;21240;-79
2022/06/27 14:15:41;;;;;;;25.08;7.53;;;;;;;30.73;30.44;100021.05;1734242;82;21269;-79
2022/06/27 14:18:46;;;;;;;34.40;8.58;;;;;;;30.69;30.30;100031.27;1744066;82;21839;-79
2022/06/27 14:21:54;;;;;;;22.73;7.55;;;;;;;30.72;30.36;100019.93;1788287;80;21260;-79
2022/06/27 14:24:59;;;;;;;23.32;7.58;;;;;;;30.76;29.98;100038.74;1717496;81;21276;-79
2022/06/27 14:28:04;;;;;;;22.27;7.65;;;;;;;30.78;29.83;100009.63;1777627;80;21758;-79
2022/06/27 14:31:09;;;;;;;19.98;7.62;;;;;;;30.74;30.31;100023.29;1777350;80;21189;-79
2022/06/27 14:34:15;;;;;;;24.60;7.87;;;;;;;30.65;30.22;100023.17;1755344;80;21196;-79
2022/06/27 14:37:19;;;;;;;33.65;9.83;;;;;;;30.54;30.33;100016.93;1771358;80;21196;-79
2022/06/27 14:40:25;;;;;;;17.70;7.58;;;;;;;30.46;30.38;100038.00;1749881;80;21216;-79
2022/06/27 14:43:30;;;;;;;20.23;5.95;;;;;;;30.39;28.88;100017.83;1776102;80;21160;-79